Time;durP1;ratioP1;P1;durP2;ratioP2;P2;SDS_P1;SDS_P2;PMS_P1;PMS_P2;Temp;Humidity;BMP_temperature;BMP_pressure;BME280_temperature;BME280_humidity;BME280_pressure;Samples;Min_cycle;Max_cycle;Signal;HPM_P1;HPM_P2
2020/12/04 00:01:21;;;;;;;;;;;;;;;2.21;100.00;95952.22;5096324;28;19925;-80
2020/12/04 00:03:48;;;;;;;;;;;;;;;2.20;100.00;95951.44;5061189;28;19974;-81
2020/12/04 00:06:14;;;;;;;;;;;;;;;2.20;100.00;95953.44;5061194;28;19924;-80
2020/12/04 00:08:41;;;;;;;;;;;;;;;2.22;100.00;95962.03;5077781;28;19924;-80
2020/12/04 00:11:07;;;;;;;;;;;;;;;2.18;100.00;95955.88;5112184;28;19932;-80
2020/12/04 00:13:34;;;;;;;;;;;;;;;2.01;100.00;95951.69;5044343;28;19931;-80
2020/12/04 00:16:01;;;;;;;;;;;;;;;1.99;100.00;95941.13;5061173;28;20028;-80
2020/12/04 00:18:27;;;;;;;;;;;;;;;1.95;100.00;95934.19;5077908;28;19977;-80
2020/12/04 00:20:54;;;;;;;;;;;;;;;1.83;100.00;95933.00;5077529;28;19924;-80
2020/12/04 00:23:20;;;;;;;;;;;;;;;1.84;100.00;95927.06;5077589;28;19947;-80
2020/12/04 00:25:47;;;;;;;;;;;;;;;1.77;100.00;95924.50;5061126;28;19973;-80
2020/12/04 00:28:14;;;;;;;;;;;;;;;1.71;100.00;95918.00;5060916;28;19931;-81
2020/12/04 00:30:40;;;;;;;;;;;;;;;1.75;100.00;95924.19;5077617;28;19930;-80
2020/12/04 00:33:07;;;;;;;;;;;;;;;1.82;100.00;95945.19;5077378;28;19931;-80
2020/12/04 00:35:33;;;;;;;;;;;;;;;1.77;100.00;95932.75;5060731;28;19924;-80
2020/12/04 00:38:01;;;;;;;;;;;;;;;1.74;100.00;95930.88;5060676;28;19931;-81
2020/12/04 00:40:28;;;;;;;;;;;;;;;1.82;100.00;95931.44;5060786;28;19924;-81
2020/12/04 00:42:56;;;;;;;;;;;;;;;1.77;100.00;95921.75;5077829;28;19989;-81
2020/12/04 00:45:24;;;;;;;;;;;;;;;1.81;100.00;95919.69;5095172;28;20012;-81
2020/12/04 00:47:50;;;;;;;;;;;;;;;1.88;100.00;95927.69;5060834;28;19955;-81
2020/12/04 00:50:18;;;;;;;;;;;;;;;1.84;100.00;95920.78;5076992;28;20334;-80
2020/12/04 00:52:44;;;;;;;;;;;;;;;1.86;100.00;95919.09;5059948;28;19924;-80
2020/12/04 00:55:11;;;;;;;;;;;;;;;1.89;100.00;95918.22;5094980;28;19947;-81
2020/12/04 00:57:38;;;;;;;;;;;;;;;1.98;100.00;95919.53;5060207;28;19931;-80
2020/12/04 01:00:05;;;;;;;;;;;;;;;1.98;100.00;95914.03;5060536;28;19931;-80
2020/12/04 01:02:32;;;;;;;;;;;;;;;1.94;100.00;95908.63;5076742;28;19924;-80
2020/12/04 01:04:59;;;;;;;;;;;;;;;1.98;100.00;95903.03;5060534;28;19969;-80
2020/12/04 01:07:25;;;;;;;;;;;;;;;1.92;100.00;95910.28;5076575;28;19931;-80
2020/12/04 01:09:52;;;;;;;;;;;;;;;1.90;100.00;95896.97;5110546;28;19924;-81
2020/12/04 01:12:19;;;;;;;;;;;;;;;1.92;100.00;95902.03;5094799;28;19924;-80
2020/12/04 01:14:46;;;;;;;;;;;;;;;1.86;100.00;95897.09;5077124;28;19924;-81
2020/12/04 01:17:13;;;;;;;;;;;;;;;1.89;100.00;95895.44;5076871;28;20736;-80
2020/12/04 01:19:43;;;;;;;;;;;;;;;1.88;100.00;95889.16;5060082;28;19928;-80
2020/12/04 01:22:10;;;;;;;;;;;;;;;1.91;100.00;95886.75;5076609;28;20027;-81
2020/12/04 01:24:37;;;;;;;;;;;;;;;1.95;100.00;95876.38;5059777;28;19960;-80
2020/12/04 01:27:03;;;;;;;;;;;;;;;1.90;100.00;95869.44;5059941;28;19931;-80
2020/12/04 01:29:30;;;;;;;;;;;;;;;1.90;100.00;95861.19;5059757;28;19924;-80
2020/12/04 01:31:57;;;;;;;;;;;;;;;1.91;100.00;95861.97;5076442;28;20022;-80
2020/12/04 01:34:23;;;;;;;;;;;;;;;1.88;100.00;95865.59;5076237;28;19977;-80
2020/12/04 01:36:50;;;;;;;;;;;;;;;1.91;100.00;95859.22;5059436;28;19924;-80
2020/12/04 01:39:16;;;;;;;;;;;;;;;1.90;100.00;95855.69;5076620;28;19931;-80
2020/12/04 01:41:43;;;;;;;;;;;;;;;1.92;100.00;95858.00;5094822;28;19951;-79
2020/12/04 01:44:10;;;;;;;;;;;;;;;1.94;100.00;95859.09;5095027;28;19924;-79
2020/12/04 01:46:36;;;;;;;;;;;;;;;1.91;100.00;95851.72;5094601;28;20565;-79
2020/12/04 01:49:03;;;;;;;;;;;;;;;1.88;100.00;95846.34;5076805;28;19928;-79
2020/12/04 01:51:30;;;;;;;;;;;;;;;1.86;100.00;95842.03;5059770;28;19947;-79
2020/12/04 01:53:57;;;;;;;;;;;;;;;1.91;100.00;95848.19;5076548;28;19931;-79
2020/12/04 01:56:24;;;;;;;;;;;;;;;1.91;100.00;95848.19;5076505;28;20397;-79
2020/12/04 01:58:50;;;;;;;;;;;;;;;1.86;100.00;95852.28;5076351;28;19924;-79
2020/12/04 02:01:17;;;;;;;;;;;;;;;1.86;100.00;95844.78;5094509;28;19931;-79
2020/12/04 02:03:43;;;;;;;;;;;;;;;1.86;100.00;95847.53;5093222;28;19924;-79
2020/12/04 02:06:19;;;;;;;;;;;;;;;1.88;100.00;95842.38;5076385;28;19924;-79
2020/12/04 02:08:48;;;;;;;;;;;;;;;1.86;100.00;95828.25;5076395;28;20412;-79
2020/12/04 02:11:18;;;;;;;;;;;;;;;1.89;100.00;95835.63;5081588;28;19931;-79
2020/12/04 02:13:45;;;;;;;;;;;;;;;1.89;100.00;95838.38;5096365;28;19924;-79
2020/12/04 02:16:19;;;;;;;;;;;;;;;1.95;100.00;95833.09;5112970;28;19954;-79
2020/12/04 02:18:46;;;;;;;;;;;;;;;1.95;100.00;95826.81;5095926;28;19923;-79
2020/12/04 02:21:13;;;;;;;;;;;;;;;2.00;100.00;95823.50;5113336;28;19928;-79
2020/12/04 02:23:43;;;;;;;;;;;;;;;2.01;100.00;95825.03;5096868;28;19924;-79
2020/12/04 02:26:11;;;;;;;;;;;;;;;2.00;100.00;95826.28;5096512;28;20325;-79
2020/12/04 02:28:38;;;;;;;;;;;;;;;2.01;100.00;95820.31;5116191;28;20272;-80
2020/12/04 02:31:05;;;;;;;;;;;;;;;2.00;100.00;95829.78;5118535;28;20351;-79
2020/12/04 02:33:32;;;;;;;;;;;;;;;2.01;100.00;95825.03;5082938;28;20282;-79
2020/12/04 02:35:59;;;;;;;;;;;;;;;2.01;100.00;95827.78;5116903;28;20022;-79
2020/12/04 02:38:26;;;;;;;;;;;;;;;1.95;100.00;95824.06;5083448;28;19923;-79
2020/12/04 02:40:53;;;;;;;;;;;;;;;1.96;100.00;95822.84;5100019;28;19989;-80
2020/12/04 02:43:19;;;;;;;;;;;;;;;1.92;100.00;95820.97;5118616;28;19947;-79
2020/12/04 02:45:46;;;;;;;;;;;;;;;1.93;100.00;95824.50;5099877;28;19934;-79
2020/12/04 02:48:13;;;;;;;;;;;;;;;1.92;100.00;95829.25;5099861;28;19934;-79
2020/12/04 02:50:39;;;;;;;;;;;;;;;1.91;100.00;95806.91;5118844;28;19924;-80
2020/12/04 02:53:06;;;;;;;;;;;;;;;1.91;100.00;95817.91;5099852;28;20512;-80
2020/12/04 02:55:33;;;;;;;;;;;;;;;1.88;100.00;95827.06;5099904;28;20015;-79
2020/12/04 02:57:59;;;;;;;;;;;;;;;1.83;100.00;95818.13;5082697;28;19925;-79
2020/12/04 03:00:26;;;;;;;;;;;;;;;1.81;100.00;95817.84;5099799;28;20367;-79
2020/12/04 03:02:53;;;;;;;;;;;;;;;1.82;100.00;95827.63;5099221;28;19967;-79
2020/12/04 03:05:19;;;;;;;;;;;;;;;1.86;100.00;95820.00;5100176;28;19931;-79
2020/12/04 03:07:46;;;;;;;;;;;;;;;1.86;100.00;95814.50;5099713;28;19928;-79
2020/12/04 03:10:13;;;;;;;;;;;;;;;1.85;100.00;95812.97;5099388;28;20412;-79
2020/12/04 03:12:40;;;;;;;;;;;;;;;1.83;100.00;95815.38;5117385;28;19924;-79
2020/12/04 03:15:07;;;;;;;;;;;;;;;1.83;100.00;95820.91;5117446;28;20383;-80
2020/12/04 03:17:34;;;;;;;;;;;;;;;1.84;100.00;95822.44;5117176;28;20302;-80
2020/12/04 03:20:00;;;;;;;;;;;;;;;1.89;100.00;95824.63;5082867;28;19924;-80
2020/12/04 03:22:27;;;;;;;;;;;;;;;1.97;100.00;95838.91;5065987;28;19923;-80
2020/12/04 03:24:53;;;;;;;;;;;;;;;1.95;100.00;95833.09;5133191;27;19934;-80
2020/12/04 03:27:20;;;;;;;;;;;;;;;1.97;100.00;95836.16;5117889;28;20309;-80
2020/12/04 03:29:47;;;;;;;;;;;;;;;1.96;100.00;95828.34;5098837;28;20278;-80
2020/12/04 03:32:14;;;;;;;;;;;;;;;2.00;100.00;95837.28;5117069;28;19928;-80
2020/12/04 03:34:41;;;;;;;;;;;;;;;1.98;100.00;95825.94;5082127;28;19952;-80
2020/12/04 03:37:08;;;;;;;;;;;;;;;2.03;100.00;95823.38;5098946;28;19924;-80
2020/12/04 03:39:35;;;;;;;;;;;;;;;2.06;100.00;95813.47;5116336;28;20266;-80
2020/12/04 03:42:02;;;;;;;;;;;;;;;2.08;100.00;95819.28;5098994;28;20355;-80
2020/12/04 03:44:29;;;;;;;;;;;;;;;2.12;100.00;95815.19;5098708;28;20014;-80
2020/12/04 03:46:56;;;;;;;;;;;;;;;2.17;100.00;95816.59;5116332;28;19924;-80
2020/12/04 03:49:23;;;;;;;;;;;;;;;2.11;100.00;95812.88;5081800;28;19935;-80
2020/12/04 03:51:50;;;;;;;;;;;;;;;2.11;100.00;95801.88;5116299;28;19972;-80
2020/12/04 03:54:16;;;;;;;;;;;;;;;2.09;100.00;95793.31;5098310;28;20379;-80
2020/12/04 03:56:43;;;;;;;;;;;;;;;2.11;100.00;95801.88;5098612;28;20434;-80
2020/12/04 03:59:09;;;;;;;;;;;;;;;2.15;100.00;95808.03;5116135;28;19924;-79
2020/12/04 04:01:36;;;;;;;;;;;;;;;2.17;100.00;95802.84;5115806;28;19935;-80
2020/12/04 04:04:02;;;;;;;;;;;;;;;2.14;100.00;95796.25;5097658;28;20022;-80
2020/12/04 04:06:29;;;;;;;;;;;;;;;2.25;100.00;95812.41;5115813;28;19923;-79
2020/12/04 04:08:55;;;;;;;;;;;;;;;2.20;100.00;95796.44;5114702;28;20018;-80
2020/12/04 04:11:22;;;;;;;;;;;;;;;2.16;100.00;95815.06;5097795;28;19923;-79
2020/12/04 04:13:49;;;;;;;;;;;;;;;2.18;100.00;95774.09;5115850;28;19931;-79
2020/12/04 04:16:15;;;;;;;;;;;;;;;2.12;100.00;95773.13;5080596;28;19924;-79
2020/12/04 04:18:42;;;;;;;;;;;;;;;2.08;100.00;95758.72;5097187;28;20370;-79
2020/12/04 04:21:10;;;;;;;;;;;;;;;2.08;100.00;95753.19;5115808;28;19946;-79
2020/12/04 04:23:37;;;;;;;;;;;;;;;2.05;100.00;95595.19;5097432;28;19932;-79
2020/12/04 04:26:04;;;;;;;;;;;;;;;2.04;100.00;95582.63;5115685;28;19924;-80
2020/12/04 04:28:32;;;;;;;;;;;;;;;2.01;100.00;95582.75;5097996;28;19931;-80
2020/12/04 04:30:59;;;;;;;;;;;;;;;2.04;100.00;95581.84;5064312;28;19924;-79
2020/12/04 04:33:25;;;;;;;;;;;;;;;2.05;100.00;95567.63;5097592;28;19988;-80
2020/12/04 04:35:52;;;;;;;;;;;;;;;2.08;100.00;95574.22;5098599;28;19924;-80
2020/12/04 04:38:18;;;;;;;;;;;;;;;2.11;100.00;95554.03;5098161;28;19930;-80
2020/12/04 04:40:45;;;;;;;;;;;;;;;2.17;100.00;95553.00;5080675;28;19924;-80
2020/12/04 04:43:12;;;;;;;;;;;;;;;2.11;100.00;95551.28;5080584;28;20359;-80
2020/12/04 04:45:40;;;;;;;;;;;;;;;2.06;100.00;95535.38;5098011;28;20381;-80
2020/12/04 04:48:19;;;;;;;;;;;;;;;2.07;100.00;95536.91;5115847;28;19923;-80
2020/12/04 04:50:46;;;;;;;;;;;;;;;2.04;100.00;95526.78;5132104;27;20346;-79
2020/12/04 04:53:13;;;;;;;;;;;;;;;2.02;100.00;95534.72;5114923;28;20022;-80
2020/12/04 04:55:42;;;;;;;;;;;;;;;2.04;100.00;95526.78;5081039;28;19924;-80
2020/12/04 04:58:09;;;;;;;;;;;;;;;2.01;100.00;95514.72;5115221;28;19928;-79
2020/12/04 05:00:36;;;;;;;;;;;;;;;1.97;100.00;95516.06;5080886;28;20343;-79
2020/12/04 05:03:07;;;;;;;;;;;;;;;1.92;100.00;95502.88;5080748;28;19924;-80
2020/12/04 05:05:40;;;;;;;;;;;;;;;1.95;100.00;95508.25;5097924;28;20358;-80
2020/12/04 05:08:11;;;;;;;;;;;;;;;1.94;100.00;95497.69;5115942;28;19962;-80
2020/12/04 05:10:49;;;;;;;;;;;;;;;1.94;100.00;95483.94;5091764;28;19916;-79
2020/12/04 05:13:20;;;;;;;;;;;;;;;1.89;100.00;95464.03;5056562;28;20021;-79
2020/12/04 05:15:47;;;;;;;;;;;;;;;1.88;100.00;95480.25;5124583;28;19931;-79
2020/12/04 05:18:15;;;;;;;;;;;;;;;1.83;100.00;95452.06;5090214;28;19931;-81
2020/12/04 05:20:43;;;;;;;;;;;;;;;1.86;100.00;95456.66;5090131;28;19924;-79
2020/12/04 05:23:10;;;;;;;;;;;;;;;1.88;100.00;95463.72;5073751;28;19931;-81
2020/12/04 05:25:37;;;;;;;;;;;;;;;1.88;100.00;95458.22;5091461;28;19924;-81
2020/12/04 05:28:17;;;;;;;;;;;;;;;1.83;100.00;95463.09;5057220;28;19963;-78
2020/12/04 05:30:45;;;;;;;;;;;;;;;1.83;100.00;95456.84;5091147;28;19950;-78
2020/12/04 05:33:12;;;;;;;;;;;;;;;1.84;100.00;95470.13;5091364;28;19928;-80
2020/12/04 05:35:39;;;;;;;;;;;;;;;1.84;100.00;95459.13;5124094;28;19928;-78
2020/12/04 05:38:09;;;;;;;;;;;;;;;1.85;100.00;95474.41;5089907;28;20318;-78
2020/12/04 05:40:37;;;;;;;;;;;;;;;1.84;100.00;95489.41;5091195;28;20290;-78
2020/12/04 05:43:04;;;;;;;;;;;;;;;1.88;100.00;95462.50;5090982;28;19925;-79
2020/12/04 05:45:31;;;;;;;;;;;;;;;1.89;100.00;95471.53;5124074;28;20027;-80
2020/12/04 05:47:58;;;;;;;;;;;;;;;1.95;100.00;95463.44;5106687;28;19924;-81
2020/12/04 05:50:25;;;;;;;;;;;;;;;1.96;100.00;95464.97;5123824;28;19930;-81
2020/12/04 05:52:51;;;;;;;;;;;;;;;1.98;100.00;95457.81;5090029;28;19928;-78
2020/12/04 05:55:18;;;;;;;;;;;;;;;1.97;100.00;95461.75;5090813;28;20372;-78
2020/12/04 05:57:46;;;;;;;;;;;;;;;1.98;100.00;95455.06;5090771;28;20278;-78
2020/12/04 06:00:14;;;;;;;;;;;;;;;2.01;100.00;95467.13;5090990;28;19931;-78
2020/12/04 06:02:40;;;;;;;;;;;;;;;1.98;100.00;95457.03;5090471;28;20011;-78
2020/12/04 06:05:09;;;;;;;;;;;;;;;2.00;100.00;95449.09;5089430;28;19925;-79
2020/12/04 06:07:37;;;;;;;;;;;;;;;2.03;100.00;95464.69;5106164;28;20365;-79
2020/12/04 06:10:03;;;;;;;;;;;;;;;1.98;100.00;95446.78;5090222;28;19925;-79
2020/12/04 06:12:30;;;;;;;;;;;;;;;1.92;100.00;95471.38;5123577;28;19924;-78
2020/12/04 06:15:20;;;;;;;;;;;;;;;1.83;100.00;95441.06;5089057;28;20379;-79
2020/12/04 06:17:46;;;;;;;;;;;;;;;1.80;100.00;95447.47;5084002;28;19947;-78
2020/12/04 06:20:18;;;;;;;;;;;;;;;1.81;100.00;95437.25;5088636;28;19924;-79
2020/12/04 06:23:03;;;;;;;;;;;;;;;1.83;100.00;95460.31;5076688;28;19964;-81
2020/12/04 06:25:49;;;;;;;;;;;;;;;1.81;100.00;95418.75;5075929;28;20257;-78
2020/12/04 06:28:17;;;;;;;;;;;;;;;1.82;100.00;95417.53;5058734;28;19924;-80
2020/12/04 06:30:55;;;;;;;;;;;;;;;1.84;100.00;95412.34;5076477;28;19924;-80
2020/12/04 06:33:51;;;;;;;;;;;;;;;1.83;100.00;95402.53;5075971;28;19930;-81
2020/12/04 06:36:30;;;;;;;;;;;;;;;1.79;100.00;95261.56;5054762;28;20078;-80
2020/12/04 06:38:57;;;;;;;;;;;;;;;1.84;100.00;95263.72;5076417;28;19925;-81
2020/12/04 06:41:24;;;;;;;;;;;;;;;1.78;100.00;95260.03;5076419;28;19924;-78
2020/12/04 06:43:52;;;;;;;;;;;;;;;1.75;100.00;95247.19;5092225;28;19967;-78
2020/12/04 06:46:40;;;;;;;;;;;;;;;1.75;100.00;95244.44;5092326;28;20015;-81
2020/12/04 06:52:08;;;;;;;;;;;;;;;1.68;100.00;95230.97;5071729;28;20407;-80
2020/12/04 06:54:39;;;;;;;;;;;;;;;1.69;100.00;95226.25;5070262;28;19936;-82
2020/12/04 06:57:06;;;;;;;;;;;;;;;1.67;100.00;95225.94;5072016;28;20019;-82
2020/12/04 06:59:39;;;;;;;;;;;;;;;1.62;100.00;95241.06;5072142;28;19928;-82
2020/12/04 07:02:29;;;;;;;;;;;;;;;1.60;100.00;95257.28;5068724;28;19924;-82
2020/12/04 07:04:57;;;;;;;;;;;;;;;1.65;100.00;95253.16;5053113;28;19925;-80
2020/12/04 07:07:25;;;;;;;;;;;;;;;1.65;100.00;95253.91;5072426;28;20023;-79
2020/12/04 07:10:03;;;;;;;;;;;;;;;1.68;100.00;95243.97;5089261;28;19934;-82
2020/12/04 07:12:31;;;;;;;;;;;;;;;1.69;100.00;95243.53;5039497;28;19935;-80
2020/12/04 07:14:59;;;;;;;;;;;;;;;1.67;100.00;95239.69;5055395;28;19924;-80
2020/12/04 07:17:27;;;;;;;;;;;;;;;1.69;100.00;95238.03;5072170;28;19924;-79
2020/12/04 07:19:55;;;;;;;;;;;;;;;1.66;100.00;95249.94;5071914;28;19931;-79
2020/12/04 07:22:23;;;;;;;;;;;;;;;1.69;100.00;95235.28;5071388;28;19924;-80
2020/12/04 07:24:51;;;;;;;;;;;;;;;1.69;100.00;95246.28;5071775;28;20363;-79
2020/12/04 07:27:18;;;;;;;;;;;;;;;1.66;100.00;95243.66;5071517;28;19924;-79
2020/12/04 07:29:45;;;;;;;;;;;;;;;1.63;100.00;95233.56;5071050;28;19925;-78
2020/12/04 07:32:12;;;;;;;;;;;;;;;1.63;100.00;95239.84;5072003;28;19928;-79
2020/12/04 07:34:39;;;;;;;;;;;;;;;1.61;100.00;95231.28;5071125;28;19928;-82
2020/12/04 07:37:06;;;;;;;;;;;;;;;1.63;100.00;95234.34;5073262;28;20624;-83
2020/12/04 07:39:34;;;;;;;;;;;;;;;1.60;100.00;95224.25;5040856;28;20019;-83
2020/12/04 07:42:01;;;;;;;;;;;;;;;1.60;100.00;95229.75;5070838;28;20097;-79
2020/12/04 07:44:29;;;;;;;;;;;;;;;1.64;100.00;95215.84;5068627;28;19924;-78
2020/12/04 07:47:00;;;;;;;;;;;;;;;1.62;100.00;95216.28;5070578;28;19924;-76
2020/12/04 07:49:27;;;;;;;;;;;;;;;1.61;100.00;95223.03;5069849;28;19928;-76
2020/12/04 07:52:06;;;;;;;;;;;;;;;1.62;100.00;95213.53;5072752;28;19931;-79
2020/12/04 07:54:34;;;;;;;;;;;;;;;1.62;100.00;95188.78;5074103;28;19924;-79
2020/12/04 07:57:01;;;;;;;;;;;;;;;1.62;100.00;95213.53;5074964;28;19924;-79
2020/12/04 07:59:31;;;;;;;;;;;;;;;1.62;100.00;95199.78;5074793;28;19924;-79
2020/12/04 08:01:59;;;;;;;;;;;;;;;1.65;100.00;95204.38;5073624;28;20538;-76
2020/12/04 08:04:26;;;;;;;;;;;;;;;1.68;100.00;95197.97;5074780;28;20360;-79
2020/12/04 08:07:03;;;;;;;;;;;;;;;1.71;100.00;95208.03;5074631;28;19925;-80
2020/12/04 08:09:38;;;;;;;;;;;;;;;1.75;100.00;95207.91;5057185;28;20023;-79
2020/12/04 08:12:09;;;;;;;;;;;;;;;1.71;100.00;95212.81;5073585;28;20485;-77
2020/12/04 08:14:37;;;;;;;;;;;;;;;1.79;100.00;95209.28;5073063;28;19924;-77
2020/12/04 08:17:05;;;;;;;;;;;;;;;1.79;100.00;95214.78;5074240;28;19939;-77
2020/12/04 08:19:32;;;;;;;;;;;;;;;1.82;100.00;95222.13;5074709;28;20040;-76
2020/12/04 08:22:07;;;;;;;;;;;;;;;1.83;100.00;95207.13;5073237;28;19931;-78
2020/12/04 08:24:35;;;;;;;;;;;;;;;1.80;100.00;95210.81;5073771;28;19924;-79
2020/12/04 08:27:12;;;;;;;;;;;;;;;1.80;100.00;95208.03;5072172;28;19928;-79
2020/12/04 08:29:43;;;;;;;;;;;;;;;1.79;100.00;95198.28;5105581;28;19924;-79
2020/12/04 08:32:18;;;;;;;;;;;;;;;1.79;100.00;95206.53;5071922;28;20367;-79
2020/12/04 08:34:45;;;;;;;;;;;;;;;1.80;100.00;95208.03;5073060;28;19999;-79
2020/12/04 08:37:12;;;;;;;;;;;;;;;1.82;100.00;95200.09;5072988;28;20019;-79
2020/12/04 08:39:39;;;;;;;;;;;;;;;1.83;100.00;95187.13;5072156;28;19964;-77
2020/12/04 08:42:20;;;;;;;;;;;;;;;1.83;100.00;95196.13;5072098;28;19970;-77
2020/12/04 08:45:13;;;;;;;;;;;;;;;1.82;100.00;95193.81;5105441;28;19966;-79
2020/12/04 08:47:39;;;;;;;;;;;;;;;1.79;100.00;95192.78;5070090;28;19942;-79
2020/12/04 08:50:07;;;;;;;;;;;;;;;1.82;100.00;95180.06;5054892;28;20395;-79
2020/12/04 08:52:38;;;;;;;;;;;;;;;1.88;100.00;95180.25;5071882;28;19931;-79
2020/12/04 08:55:09;;;;;;;;;;;;;;;1.88;100.00;95180.25;5071930;28;20062;-79
2020/12/04 08:57:36;;;;;;;;;;;;;;;1.89;100.00;95179.78;5055137;28;20295;-78
2020/12/04 09:00:04;;;;;;;;;;;;;;;1.88;100.00;95183.00;5073073;28;20371;-79
2020/12/04 09:02:31;;;;;;;;;;;;;;;1.94;100.00;95175.66;5071690;28;20314;-77
2020/12/04 09:04:57;;;;;;;;;;;;;;;1.97;100.00;95180.22;5072828;28;19925;-77
2020/12/04 09:07:24;;;;;;;;;;;;;;;1.90;100.00;95164.78;5071681;28;19924;-77
2020/12/04 09:09:51;;;;;;;;;;;;;;;1.89;100.00;95161.25;5072661;28;19931;-77
2020/12/04 09:12:21;;;;;;;;;;;;;;;1.88;100.00;95160.97;5072849;28;20044;-80
2020/12/04 09:14:48;;;;;;;;;;;;;;;1.86;100.00;95159.44;5055115;28;20077;-79
2020/12/04 09:17:15;;;;;;;;;;;;;;;1.84;100.00;95150.88;5105341;28;20015;-80
2020/12/04 09:19:44;;;;;;;;;;;;;;;1.88;100.00;95169.22;5072687;28;19924;-80
2020/12/04 09:22:11;;;;;;;;;;;;;;;1.83;100.00;95148.59;5071579;28;19931;-79
2020/12/04 09:24:38;;;;;;;;;;;;;;;1.86;100.00;95142.16;5072818;28;20300;-79
2020/12/04 09:27:04;;;;;;;;;;;;;;;1.78;100.00;95140.94;5073067;28;20312;-79
2020/12/04 09:29:31;;;;;;;;;;;;;;;1.76;100.00;95144.16;5072703;28;20038;-79
2020/12/04 09:32:04;;;;;;;;;;;;;;;1.73;100.00;95147.81;5072522;28;19924;-79
2020/12/04 09:34:31;;;;;;;;;;;;;;;1.74;100.00;95134.84;5072573;28;19974;-79
2020/12/04 09:37:13;;;;;;;;;;;;;;;1.70;100.00;95145.22;5071465;28;19924;-79
2020/12/04 09:39:43;;;;;;;;;;;;;;;1.67;100.00;95135.13;5072734;28;20062;-79
2020/12/04 09:42:10;;;;;;;;;;;;;;;1.72;100.00;95129.03;5072536;28;19931;-79
2020/12/04 09:44:36;;;;;;;;;;;;;;;1.72;100.00;95121.53;5071426;28;19924;-79
2020/12/04 09:47:03;;;;;;;;;;;;;;;1.70;100.00;95123.97;5071335;28;19924;-79
2020/12/04 09:49:29;;;;;;;;;;;;;;;1.73;100.00;95112.06;5072347;28;19931;-79
2020/12/04 09:51:58;;;;;;;;;;;;;;;1.74;100.00;95107.31;5072548;28;20298;-78
2020/12/04 09:54:28;;;;;;;;;;;;;;;1.67;100.00;95127.66;5072471;28;19966;-79
2020/12/04 09:56:55;;;;;;;;;;;;;;;1.69;100.00;95121.69;5075126;28;19972;-79
2020/12/04 09:59:22;;;;;;;;;;;;;;;1.68;100.00;95112.66;5058500;28;20015;-79
2020/12/04 10:01:49;;;;;;;;;;;;;;;1.66;100.00;95125.38;5074808;28;20023;-79
2020/12/04 10:04:17;;;;;;;;;;;;;;;1.64;100.00;95114.81;5058235;28;19932;-79
2020/12/04 10:06:44;;;;;;;;;;;;;;;1.57;100.00;95123.38;5074921;28;20553;-79
2020/12/04 10:09:11;;;;;;;;;;;;;;;1.57;100.00;95120.63;5075876;28;19924;-79
2020/12/04 10:11:38;;;;;;;;;;;;;;;1.52;100.00;95118.50;5076047;28;19954;-79
2020/12/04 10:14:04;;;;;;;;;;;;;;;1.48;100.00;95117.88;5074695;28;19924;-79
2020/12/04 10:16:31;;;;;;;;;;;;;;;1.44;100.00;95127.50;5057799;28;19963;-79
2020/12/04 10:18:58;;;;;;;;;;;;;;;1.42;100.00;95132.69;5057806;28;19925;-79
2020/12/04 10:21:31;;;;;;;;;;;;;;;1.39;100.00;95117.84;5057970;28;20406;-79
2020/12/04 10:23:57;;;;;;;;;;;;;;;1.38;100.00;95118.31;5075900;28;19924;-79
2020/12/04 10:26:24;;;;;;;;;;;;;;;1.41;100.00;95111.91;5075822;28;19924;-79
2020/12/04 10:28:51;;;;;;;;;;;;;;;1.43;100.00;95121.25;5074461;28;20419;-79
2020/12/04 10:31:17;;;;;;;;;;;;;;;1.47;100.00;95115.59;5074146;28;20371;-79
2020/12/04 10:33:44;;;;;;;;;;;;;;;1.47;100.00;95116.34;5075560;28;19994;-79
2020/12/04 10:36:10;;;;;;;;;;;;;;;1.48;100.00;95123.38;5091203;28;19925;-79
2020/12/04 10:38:37;;;;;;;;;;;;;;;1.48;100.00;95128.13;5075579;28;20364;-79
2020/12/04 10:41:03;;;;;;;;;;;;;;;1.52;100.00;95124.00;5075486;28;19925;-80
2020/12/04 10:43:30;;;;;;;;;;;;;;;1.49;100.00;95126.88;5075433;28;19924;-79
2020/12/04 10:45:56;;;;;;;;;;;;;;;1.47;100.00;95121.09;5075213;28;19951;-79
2020/12/04 10:48:23;;;;;;;;;;;;;;;1.45;100.00;95120.78;5075408;28;19924;-79
2020/12/04 10:50:49;;;;;;;;;;;;;;;1.45;100.00;95129.78;5075210;28;19931;-80
2020/12/04 10:53:18;;;;;;;;;;;;;;;1.45;100.00;95129.78;5075323;28;20423;-79
2020/12/04 10:55:45;;;;;;;;;;;;;;;1.43;100.00;95121.25;5090976;28;20069;-79
2020/12/04 10:58:11;;;;;;;;;;;;;;;1.41;100.00;95109.94;5075129;28;20015;-79
2020/12/04 11:00:38;;;;;;;;;;;;;;;1.38;100.00;95113.59;5073593;28;20009;-78
2020/12/04 11:03:15;;;;;;;;;;;;;;;1.36;100.00;95104.28;5073878;28;19924;-79
2020/12/04 11:05:43;;;;;;;;;;;;;;;1.38;100.00;95118.31;5075169;28;20093;-79
2020/12/04 11:08:09;;;;;;;;;;;;;;;1.39;100.00;95112.34;5073642;28;19924;-79
2020/12/04 11:10:36;;;;;;;;;;;;;;;1.43;100.00;95107.50;5057084;28;19925;-80
2020/12/04 11:13:03;;;;;;;;;;;;;;;1.47;100.00;95104.59;5076015;28;19924;-83
2020/12/04 11:15:30;;;;;;;;;;;;;;;1.48;100.00;95104.13;5025164;28;19925;-79
2020/12/04 11:17:57;;;;;;;;;;;;;;;1.49;100.00;95110.38;5107501;28;19924;-79
2020/12/04 11:20:24;;;;;;;;;;;;;;;1.46;100.00;95103.81;5057538;28;19925;-79
2020/12/04 11:22:53;;;;;;;;;;;;;;;1.44;100.00;95103.50;5075678;28;19951;-81
2020/12/04 11:25:20;;;;;;;;;;;;;;;1.44;100.00;95099.97;5076160;28;19924;-79
2020/12/04 11:27:48;;;;;;;;;;;;;;;1.43;100.00;95103.97;5075628;28;19924;-79
2020/12/04 11:30:18;;;;;;;;;;;;;;;1.40;100.00;95094.66;5074315;28;19933;-79
2020/12/04 11:32:45;;;;;;;;;;;;;;;1.37;100.00;95097.56;5090963;28;19925;-78
2020/12/04 11:35:12;;;;;;;;;;;;;;;1.34;100.00;95093.75;5075046;28;19928;-78
2020/12/04 11:37:40;;;;;;;;;;;;;;;1.29;100.00;95097.09;5074914;28;19932;-78
2020/12/04 11:40:08;;;;;;;;;;;;;;;1.23;100.00;95090.69;5074942;28;19924;-78
2020/12/04 11:42:38;;;;;;;;;;;;;;;1.18;100.00;95096.03;5073333;28;19986;-78
2020/12/04 11:45:08;;;;;;;;;;;;;;;1.15;100.00;95094.94;5074886;28;20015;-78
2020/12/04 11:47:39;;;;;;;;;;;;;;;1.14;100.00;95096.16;5075012;28;20279;-78
2020/12/04 11:50:07;;;;;;;;;;;;;;;1.11;100.00;95099.06;5074687;28;19924;-78
2020/12/04 11:52:34;;;;;;;;;;;;;;;1.06;100.00;95103.19;5074575;28;20453;-78
2020/12/04 11:55:01;;;;;;;;;;;;;;;1.06;100.00;95097.69;5074737;28;20030;-78
2020/12/04 11:57:27;;;;;;;;;;;;;;;1.07;100.00;95112.19;5073453;28;19924;-78
2020/12/04 11:59:54;;;;;;;;;;;;;;;1.04;100.00;95100.13;5074429;28;19931;-78
2020/12/04 12:02:21;;;;;;;;;;;;;;;1.01;100.00;95112.03;5073178;28;19925;-78
2020/12/04 12:04:47;;;;;;;;;;;;;;;1.03;100.00;95106.09;5074327;28;20019;-78
2020/12/04 12:07:14;;;;;;;;;;;;;;;1.04;100.00;95111.13;5072990;28;19931;-79
2020/12/04 12:09:40;;;;;;;;;;;;;;;1.06;100.00;95114.16;5073976;28;19931;-78
2020/12/04 12:12:07;;;;;;;;;;;;;;;1.05;100.00;95118.16;5106480;28;19931;-79
2020/12/04 12:14:33;;;;;;;;;;;;;;;1.10;100.00;95111.28;5072768;28;19928;-79
2020/12/04 12:17:00;;;;;;;;;;;;;;;1.09;100.00;95129.75;5074187;28;19931;-79
2020/12/04 12:19:26;;;;;;;;;;;;;;;1.08;100.00;95132.94;5073458;28;19924;-79
2020/12/04 12:21:55;;;;;;;;;;;;;;;1.05;100.00;95123.66;5106676;28;19924;-79
2020/12/04 12:24:21;;;;;;;;;;;;;;;1.05;100.00;95134.63;5073953;28;19929;-78
2020/12/04 12:26:48;;;;;;;;;;;;;;;1.05;100.00;95120.91;5073919;28;19925;-79
2020/12/04 12:29:15;;;;;;;;;;;;;;;1.08;100.00;95135.69;5072475;28;19932;-79
2020/12/04 12:31:42;;;;;;;;;;;;;;;1.09;100.00;95137.25;5072716;28;19928;-78
2020/12/04 12:34:08;;;;;;;;;;;;;;;1.10;100.00;95139.53;5072726;28;19924;-79
2020/12/04 12:36:35;;;;;;;;;;;;;;;1.08;100.00;95150.22;5074027;28;19930;-79
2020/12/04 12:39:02;;;;;;;;;;;;;;;1.08;100.00;95152.97;5072949;28;20256;-79
2020/12/04 12:41:29;;;;;;;;;;;;;;;1.05;100.00;95148.38;5073758;28;19924;-79
2020/12/04 12:43:56;;;;;;;;;;;;;;;1.04;100.00;95144.13;5073639;28;20015;-78
2020/12/04 12:46:22;;;;;;;;;;;;;;;1.04;100.00;95146.88;5055904;28;19924;-79
2020/12/04 12:48:49;;;;;;;;;;;;;;;1.04;100.00;95155.09;5055845;28;19960;-78
2020/12/04 12:51:15;;;;;;;;;;;;;;;1.07;100.00;95156.16;5072687;28;20383;-79
2020/12/04 12:53:42;;;;;;;;;;;;;;;1.06;100.00;95157.41;5074320;28;19929;-79
2020/12/04 12:56:08;;;;;;;;;;;;;;;1.03;100.00;95159.06;5106452;28;19925;-78